X  Sluiten METAR luchtvaart weer gegevens      EHRD Rotterdam The Hague Airport
Temperatuur
9°C Temperatuur
8°C Dauwpunt
94% Vochtigheid



Wind
29 KM/U
18 MPH
8 M/S
16 KTS



200°
ZZW
Huidig weer

Hevige Motregen, Hevige Regen Hevige Motregen, Hevige Regen
Luchtdruk 1000 (hPa) - 29.53 (inHg)
Zicht 2.2 (mijl) - 3.6 (km)
Vliegveld
Vliegveld code EHRD

Locatie : Rotterdam The Hague Airport
Afstand: 27 (km)

Metar:
EHRD 211855Z AUTO 20016KT 160V230 3600 +DZRA FEW007 BKN008 OVC009 09/08 Q1000 BECMG 7000

Tijd: 21-02-2024 18:55 CET